Staffordville, New Jersey
Current Conditions -  °F | °C
As of 11:15 AM on Thursday 23 Oct 2014 (Local Time) from KMJX Reporting Station
Overcast Overcast  
Wind Chill: 11°   Ceiling: 1800
Heat Index: 11°   Visibility: 5mi
Dew Point:   Wind: 8mph
Humidity: 88%   Direction: 330°NNW
Pressure: 29.72"   Gusts: NA
Location:  39.6605°N, 74.2864°W
Report Text: KMJX 231515Z AUTO 33007KT 5SM FEW010 OVC018 11/09 A2972 RMK AO1
Loading
Personal Weather Stations






























Interactive Weather Map
Tropical Storm Tracking
New forecast layout! Learn more

10-Day Weather Forecast

Advertisements
Track Severe Weather on mobile